sensor_id;sensor_type;location;lat;lon;timestamp;P1;durP1;ratioP1;P2;durP2;ratioP2
21665;SDS011;10994;45.486;9.190;2022-12-13T00:01:29;19.63;;;14.67;;
21665;SDS011;10994;45.486;9.190;2022-12-13T00:03:58;18.27;;;13.53;;
21665;SDS011;10994;45.486;9.190;2022-12-13T00:06:26;19.60;;;13.67;;
21665;SDS011;10994;45.486;9.190;2022-12-13T00:08:53;19.93;;;14.30;;
21665;SDS011;10994;45.486;9.190;2022-12-13T00:11:18;20.73;;;13.90;;
21665;SDS011;10994;45.486;9.190;2022-12-13T00:13:44;18.50;;;14.10;;
21665;SDS011;10994;45.486;9.190;2022-12-13T00:16:16;17.57;;;12.80;;
21665;SDS011;10994;45.486;9.190;2022-12-13T00:18:47;20.47;;;14.27;;
21665;SDS011;10994;45.486;9.190;2022-12-13T00:21:20;20.07;;;14.87;;
21665;SDS011;10994;45.486;9.190;2022-12-13T00:23:46;18.40;;;13.63;;
21665;SDS011;10994;45.486;9.190;2022-12-13T00:26:13;21.37;;;14.40;;
21665;SDS011;10994;45.486;9.190;2022-12-13T00:28:40;23.33;;;15.27;;
21665;SDS011;10994;45.486;9.190;2022-12-13T00:31:07;21.60;;;13.97;;
21665;SDS011;10994;45.486;9.190;2022-12-13T00:33:33;20.03;;;14.03;;
21665;SDS011;10994;45.486;9.190;2022-12-13T00:36:02;20.07;;;14.37;;
21665;SDS011;10994;45.486;9.190;2022-12-13T00:38:29;22.23;;;15.60;;
21665;SDS011;10994;45.486;9.190;2022-12-13T00:40:55;20.53;;;14.23;;
21665;SDS011;10994;45.486;9.190;2022-12-13T00:43:20;21.60;;;14.50;;
21665;SDS011;10994;45.486;9.190;2022-12-13T00:45:46;21.13;;;15.07;;
21665;SDS011;10994;45.486;9.190;2022-12-13T00:48:12;21.97;;;14.43;;
21665;SDS011;10994;45.486;9.190;2022-12-13T00:50:38;20.60;;;14.87;;
21665;SDS011;10994;45.486;9.190;2022-12-13T00:53:04;21.73;;;14.20;;
21665;SDS011;10994;45.486;9.190;2022-12-13T00:55:30;20.73;;;14.40;;
21665;SDS011;10994;45.486;9.190;2022-12-13T00:57:56;21.23;;;15.43;;
21665;SDS011;10994;45.486;9.190;2022-12-13T01:00:21;22.10;;;14.50;;
21665;SDS011;10994;45.486;9.190;2022-12-13T01:02:50;22.70;;;14.93;;
21665;SDS011;10994;45.486;9.190;2022-12-13T01:05:17;20.13;;;14.60;;
21665;SDS011;10994;45.486;9.190;2022-12-13T01:07:43;19.00;;;13.93;;
21665;SDS011;10994;45.486;9.190;2022-12-13T01:10:09;18.93;;;13.57;;
21665;SDS011;10994;45.486;9.190;2022-12-13T01:12:36;22.87;;;15.00;;
21665;SDS011;10994;45.486;9.190;2022-12-13T01:15:04;20.90;;;14.23;;
21665;SDS011;10994;45.486;9.190;2022-12-13T01:17:30;21.50;;;13.93;;
21665;SDS011;10994;45.486;9.190;2022-12-13T01:19:58;18.90;;;13.93;;
21665;SDS011;10994;45.486;9.190;2022-12-13T01:22:23;20.87;;;14.97;;
21665;SDS011;10994;45.486;9.190;2022-12-13T01:24:49;21.07;;;14.17;;
21665;SDS011;10994;45.486;9.190;2022-12-13T01:27:15;20.07;;;14.47;;
21665;SDS011;10994;45.486;9.190;2022-12-13T01:29:41;20.33;;;13.30;;
21665;SDS011;10994;45.486;9.190;2022-12-13T01:32:06;18.80;;;14.37;;
21665;SDS011;10994;45.486;9.190;2022-12-13T01:34:32;19.03;;;13.30;;
21665;SDS011;10994;45.486;9.190;2022-12-13T01:36:59;21.50;;;15.00;;
21665;SDS011;10994;45.486;9.190;2022-12-13T01:39:24;22.27;;;14.30;;
21665;SDS011;10994;45.486;9.190;2022-12-13T01:41:51;18.67;;;14.30;;
21665;SDS011;10994;45.486;9.190;2022-12-13T01:47:37;17.23;;;13.37;;
21665;SDS011;10994;45.486;9.190;2022-12-13T01:50:08;21.90;;;15.03;;
21665;SDS011;10994;45.486;9.190;2022-12-13T01:52:37;19.10;;;14.00;;
21665;SDS011;10994;45.486;9.190;2022-12-13T01:55:05;19.63;;;14.20;;
21665;SDS011;10994;45.486;9.190;2022-12-13T01:57:32;18.17;;;13.40;;
21665;SDS011;10994;45.486;9.190;2022-12-13T02:00:00;20.33;;;13.90;;
21665;SDS011;10994;45.486;9.190;2022-12-13T02:02:26;19.93;;;13.43;;
21665;SDS011;10994;45.486;9.190;2022-12-13T02:04:56;17.57;;;12.90;;
21665;SDS011;10994;45.486;9.190;2022-12-13T02:07:28;16.17;;;12.27;;
21665;SDS011;10994;45.486;9.190;2022-12-13T02:09:58;19.33;;;13.93;;
21665;SDS011;10994;45.486;9.190;2022-12-13T02:12:27;18.87;;;13.20;;
21665;SDS011;10994;45.486;9.190;2022-12-13T02:14:55;17.57;;;13.17;;
21665;SDS011;10994;45.486;9.190;2022-12-13T02:23:11;17.97;;;13.23;;
21665;SDS011;10994;45.486;9.190;2022-12-13T02:28:47;20.13;;;13.93;;
21665;SDS011;10994;45.486;9.190;2022-12-13T02:34:09;18.97;;;13.73;;
21665;SDS011;10994;45.486;9.190;2022-12-13T02:39:20;18.80;;;13.63;;
21665;SDS011;10994;45.486;9.190;2022-12-13T02:42:10;19.87;;;12.70;;
21665;SDS011;10994;45.486;9.190;2022-12-13T02:44:49;17.77;;;13.00;;
21665;SDS011;10994;45.486;9.190;2022-12-13T02:47:27;17.93;;;13.07;;
21665;SDS011;10994;45.486;9.190;2022-12-13T02:49:55;21.57;;;14.40;;
21665;SDS011;10994;45.486;9.190;2022-12-13T02:52:25;18.93;;;13.87;;
21665;SDS011;10994;45.486;9.190;2022-12-13T02:54:53;20.80;;;14.43;;
21665;SDS011;10994;45.486;9.190;2022-12-13T02:57:36;17.57;;;13.30;;
21665;SDS011;10994;45.486;9.190;2022-12-13T03:00:10;18.13;;;13.77;;
21665;SDS011;10994;45.486;9.190;2022-12-13T03:02:41;22.60;;;14.70;;
21665;SDS011;10994;45.486;9.190;2022-12-13T03:08:22;21.17;;;14.33;;
21665;SDS011;10994;45.486;9.190;2022-12-13T03:11:16;19.90;;;14.47;;
21665;SDS011;10994;45.486;9.190;2022-12-13T03:16:16;23.27;;;14.10;;
21665;SDS011;10994;45.486;9.190;2022-12-13T03:18:54;19.63;;;13.97;;
21665;SDS011;10994;45.486;9.190;2022-12-13T03:21:23;20.30;;;14.27;;
21665;SDS011;10994;45.486;9.190;2022-12-13T03:23:49;20.10;;;14.13;;
21665;SDS011;10994;45.486;9.190;2022-12-13T03:26:16;18.20;;;13.67;;
21665;SDS011;10994;45.486;9.190;2022-12-13T03:28:48;19.30;;;14.10;;
21665;SDS011;10994;45.486;9.190;2022-12-13T03:31:13;18.70;;;13.73;;
21665;SDS011;10994;45.486;9.190;2022-12-13T03:33:39;19.60;;;13.57;;
21665;SDS011;10994;45.486;9.190;2022-12-13T03:36:05;19.73;;;12.60;;
21665;SDS011;10994;45.486;9.190;2022-12-13T03:38:32;17.80;;;14.30;;
21665;SDS011;10994;45.486;9.190;2022-12-13T03:41:03;17.67;;;13.27;;
21665;SDS011;10994;45.486;9.190;2022-12-13T03:43:33;18.63;;;13.47;;
21665;SDS011;10994;45.486;9.190;2022-12-13T03:45:58;17.93;;;14.20;;
21665;SDS011;10994;45.486;9.190;2022-12-13T03:48:25;19.60;;;13.67;;
21665;SDS011;10994;45.486;9.190;2022-12-13T03:50:51;17.10;;;12.70;;
21665;SDS011;10994;45.486;9.190;2022-12-13T03:53:18;19.57;;;13.80;;
21665;SDS011;10994;45.486;9.190;2022-12-13T03:55:45;20.17;;;14.90;;
21665;SDS011;10994;45.486;9.190;2022-12-13T03:58:11;19.97;;;13.63;;
21665;SDS011;10994;45.486;9.190;2022-12-13T04:00:37;17.97;;;13.93;;
21665;SDS011;10994;45.486;9.190;2022-12-13T04:03:02;18.67;;;14.10;;
21665;SDS011;10994;45.486;9.190;2022-12-13T04:05:28;17.83;;;13.70;;
21665;SDS011;10994;45.486;9.190;2022-12-13T04:07:55;20.00;;;14.77;;
21665;SDS011;10994;45.486;9.190;2022-12-13T04:10:21;21.23;;;13.93;;
21665;SDS011;10994;45.486;9.190;2022-12-13T04:12:47;19.80;;;14.70;;
21665;SDS011;10994;45.486;9.190;2022-12-13T04:15:31;23.53;;;15.03;;
21665;SDS011;10994;45.486;9.190;2022-12-13T04:17:57;19.43;;;14.03;;
21665;SDS011;10994;45.486;9.190;2022-12-13T04:20:22;20.87;;;14.53;;
21665;SDS011;10994;45.486;9.190;2022-12-13T04:22:48;22.30;;;14.80;;
21665;SDS011;10994;45.486;9.190;2022-12-13T04:25:14;20.07;;;14.47;;
21665;SDS011;10994;45.486;9.190;2022-12-13T04:27:40;19.93;;;14.50;;
21665;SDS011;10994;45.486;9.190;2022-12-13T04:30:06;20.00;;;14.57;;
21665;SDS011;10994;45.486;9.190;2022-12-13T04:32:32;18.57;;;14.57;;
21665;SDS011;10994;45.486;9.190;2022-12-13T04:34:58;20.97;;;15.77;;
21665;SDS011;10994;45.486;9.190;2022-12-13T04:37:24;19.33;;;14.30;;
21665;SDS011;10994;45.486;9.190;2022-12-13T04:39:50;21.23;;;16.20;;
21665;SDS011;10994;45.486;9.190;2022-12-13T04:42:15;21.50;;;15.23;;
21665;SDS011;10994;45.486;9.190;2022-12-13T04:44:41;21.80;;;14.87;;
21665;SDS011;10994;45.486;9.190;2022-12-13T04:47:07;20.07;;;14.47;;
21665;SDS011;10994;45.486;9.190;2022-12-13T04:49:33;21.37;;;15.63;;
21665;SDS011;10994;45.486;9.190;2022-12-13T04:51:59;20.23;;;15.80;;
21665;SDS011;10994;45.486;9.190;2022-12-13T04:54:26;25.57;;;17.47;;
21665;SDS011;10994;45.486;9.190;2022-12-13T04:56:51;19.20;;;15.27;;
21665;SDS011;10994;45.486;9.190;2022-12-13T04:59:17;24.03;;;15.93;;
21665;SDS011;10994;45.486;9.190;2022-12-13T05:01:43;23.63;;;14.83;;
21665;SDS011;10994;45.486;9.190;2022-12-13T05:04:08;21.93;;;16.17;;
21665;SDS011;10994;45.486;9.190;2022-12-13T05:06:34;24.53;;;16.37;;
21665;SDS011;10994;45.486;9.190;2022-12-13T05:09:00;23.07;;;15.57;;
21665;SDS011;10994;45.486;9.190;2022-12-13T05:11:26;28.23;;;18.47;;
21665;SDS011;10994;45.486;9.190;2022-12-13T05:13:52;22.07;;;16.43;;
21665;SDS011;10994;45.486;9.190;2022-12-13T05:16:17;22.37;;;16.13;;
21665;SDS011;10994;45.486;9.190;2022-12-13T05:18:43;23.50;;;16.70;;
21665;SDS011;10994;45.486;9.190;2022-12-13T05:21:09;21.23;;;15.83;;
21665;SDS011;10994;45.486;9.190;2022-12-13T05:23:37;25.50;;;17.93;;
21665;SDS011;10994;45.486;9.190;2022-12-13T05:26:03;27.20;;;17.37;;
21665;SDS011;10994;45.486;9.190;2022-12-13T05:28:29;25.93;;;17.57;;
21665;SDS011;10994;45.486;9.190;2022-12-13T05:30:56;26.23;;;18.53;;
21665;SDS011;10994;45.486;9.190;2022-12-13T05:33:24;22.47;;;16.63;;
21665;SDS011;10994;45.486;9.190;2022-12-13T05:35:50;24.90;;;17.50;;
21665;SDS011;10994;45.486;9.190;2022-12-13T05:38:16;26.10;;;17.23;;
21665;SDS011;10994;45.486;9.190;2022-12-13T05:40:42;23.27;;;16.77;;
21665;SDS011;10994;45.486;9.190;2022-12-13T05:43:11;25.33;;;17.17;;
21665;SDS011;10994;45.486;9.190;2022-12-13T05:45:37;21.97;;;16.23;;
21665;SDS011;10994;45.486;9.190;2022-12-13T05:48:03;24.23;;;17.03;;
21665;SDS011;10994;45.486;9.190;2022-12-13T05:50:30;23.23;;;15.97;;
21665;SDS011;10994;45.486;9.190;2022-12-13T05:52:55;25.60;;;17.43;;
21665;SDS011;10994;45.486;9.190;2022-12-13T05:55:21;21.50;;;16.30;;
21665;SDS011;10994;45.486;9.190;2022-12-13T05:57:47;23.37;;;15.80;;
21665;SDS011;10994;45.486;9.190;2022-12-13T06:00:13;21.27;;;15.67;;
21665;SDS011;10994;45.486;9.190;2022-12-13T06:02:40;22.60;;;15.83;;
21665;SDS011;10994;45.486;9.190;2022-12-13T06:05:08;21.67;;;16.20;;
21665;SDS011;10994;45.486;9.190;2022-12-13T06:07:35;22.50;;;16.67;;
21665;SDS011;10994;45.486;9.190;2022-12-13T06:10:02;19.63;;;14.93;;
21665;SDS011;10994;45.486;9.190;2022-12-13T06:12:29;24.43;;;16.07;;
21665;SDS011;10994;45.486;9.190;2022-12-13T06:14:55;22.83;;;15.47;;
21665;SDS011;10994;45.486;9.190;2022-12-13T06:17:20;21.27;;;15.50;;
21665;SDS011;10994;45.486;9.190;2022-12-13T06:19:49;22.13;;;15.97;;
21665;SDS011;10994;45.486;9.190;2022-12-13T06:22:15;23.13;;;15.27;;
21665;SDS011;10994;45.486;9.190;2022-12-13T06:24:41;20.63;;;14.83;;
21665;SDS011;10994;45.486;9.190;2022-12-13T06:27:06;21.93;;;15.60;;
21665;SDS011;10994;45.486;9.190;2022-12-13T06:29:32;19.90;;;14.83;;
21665;SDS011;10994;45.486;9.190;2022-12-13T06:32:00;22.37;;;15.40;;
21665;SDS011;10994;45.486;9.190;2022-12-13T06:34:26;21.73;;;15.07;;
21665;SDS011;10994;45.486;9.190;2022-12-13T06:36:53;22.10;;;14.67;;
21665;SDS011;10994;45.486;9.190;2022-12-13T06:39:19;22.53;;;15.57;;
21665;SDS011;10994;45.486;9.190;2022-12-13T06:41:45;20.47;;;14.80;;
21665;SDS011;10994;45.486;9.190;2022-12-13T06:44:13;22.57;;;15.00;;
21665;SDS011;10994;45.486;9.190;2022-12-13T06:46:39;22.30;;;15.70;;
21665;SDS011;10994;45.486;9.190;2022-12-13T06:49:05;26.03;;;15.63;;
21665;SDS011;10994;45.486;9.190;2022-12-13T06:51:31;23.57;;;16.17;;
21665;SDS011;10994;45.486;9.190;2022-12-13T06:53:58;24.53;;;17.30;;
21665;SDS011;10994;45.486;9.190;2022-12-13T06:56:26;20.70;;;14.17;;
21665;SDS011;10994;45.486;9.190;2022-12-13T06:58:52;19.57;;;15.67;;
21665;SDS011;10994;45.486;9.190;2022-12-13T07:01:18;21.83;;;15.60;;
21665;SDS011;10994;45.486;9.190;2022-12-13T07:03:44;22.70;;;15.10;;
21665;SDS011;10994;45.486;9.190;2022-12-13T07:06:11;25.97;;;17.10;;
21665;SDS011;10994;45.486;9.190;2022-12-13T07:08:39;23.40;;;16.37;;
21665;SDS011;10994;45.486;9.190;2022-12-13T07:11:05;20.90;;;15.70;;
21665;SDS011;10994;45.486;9.190;2022-12-13T07:13:31;19.07;;;14.33;;
21665;SDS011;10994;45.486;9.190;2022-12-13T07:15:58;25.93;;;16.03;;
21665;SDS011;10994;45.486;9.190;2022-12-13T07:18:24;21.43;;;14.77;;
21665;SDS011;10994;45.486;9.190;2022-12-13T07:20:50;19.87;;;14.20;;
21665;SDS011;10994;45.486;9.190;2022-12-13T07:23:16;22.63;;;14.90;;
21665;SDS011;10994;45.486;9.190;2022-12-13T07:25:49;25.43;;;16.10;;
21665;SDS011;10994;45.486;9.190;2022-12-13T07:28:17;26.53;;;14.73;;
21665;SDS011;10994;45.486;9.190;2022-12-13T07:30:43;20.47;;;14.50;;
21665;SDS011;10994;45.486;9.190;2022-12-13T07:33:09;20.97;;;14.50;;
21665;SDS011;10994;45.486;9.190;2022-12-13T07:35:35;22.27;;;15.00;;
21665;SDS011;10994;45.486;9.190;2022-12-13T07:38:01;23.90;;;15.80;;
21665;SDS011;10994;45.486;9.190;2022-12-13T07:40:26;22.33;;;14.87;;
21665;SDS011;10994;45.486;9.190;2022-12-13T07:42:52;20.60;;;15.20;;
21665;SDS011;10994;45.486;9.190;2022-12-13T07:45:20;23.20;;;15.57;;
21665;SDS011;10994;45.486;9.190;2022-12-13T07:47:47;19.30;;;14.57;;
21665;SDS011;10994;45.486;9.190;2022-12-13T07:50:15;21.53;;;15.20;;
21665;SDS011;10994;45.486;9.190;2022-12-13T07:52:41;20.77;;;15.83;;
21665;SDS011;10994;45.486;9.190;2022-12-13T07:55:07;22.93;;;16.07;;
21665;SDS011;10994;45.486;9.190;2022-12-13T07:57:33;24.63;;;14.77;;
21665;SDS011;10994;45.486;9.190;2022-12-13T07:59:59;20.10;;;15.03;;
21665;SDS011;10994;45.486;9.190;2022-12-13T08:02:25;24.03;;;16.53;;
21665;SDS011;10994;45.486;9.190;2022-12-13T08:04:52;26.00;;;16.63;;
21665;SDS011;10994;45.486;9.190;2022-12-13T08:07:17;23.10;;;15.87;;
21665;SDS011;10994;45.486;9.190;2022-12-13T08:09:43;25.03;;;16.87;;
21665;SDS011;10994;45.486;9.190;2022-12-13T08:12:09;23.07;;;15.90;;
21665;SDS011;10994;45.486;9.190;2022-12-13T08:14:34;21.60;;;16.20;;
21665;SDS011;10994;45.486;9.190;2022-12-13T08:17:00;24.63;;;16.80;;
21665;SDS011;10994;45.486;9.190;2022-12-13T08:19:26;24.70;;;16.73;;
21665;SDS011;10994;45.486;9.190;2022-12-13T08:21:51;23.73;;;17.27;;
21665;SDS011;10994;45.486;9.190;2022-12-13T08:24:17;22.33;;;17.13;;
21665;SDS011;10994;45.486;9.190;2022-12-13T08:26:44;28.33;;;18.83;;
21665;SDS011;10994;45.486;9.190;2022-12-13T08:29:10;25.00;;;17.83;;
21665;SDS011;10994;45.486;9.190;2022-12-13T08:31:36;25.77;;;18.17;;
21665;SDS011;10994;45.486;9.190;2022-12-13T08:34:03;26.00;;;18.43;;
21665;SDS011;10994;45.486;9.190;2022-12-13T08:36:28;25.70;;;18.90;;
21665;SDS011;10994;45.486;9.190;2022-12-13T08:38:54;26.17;;;19.00;;
21665;SDS011;10994;45.486;9.190;2022-12-13T08:41:20;27.73;;;19.87;;
21665;SDS011;10994;45.486;9.190;2022-12-13T08:43:46;27.53;;;20.07;;
21665;SDS011;10994;45.486;9.190;2022-12-13T08:46:13;29.27;;;21.03;;
21665;SDS011;10994;45.486;9.190;2022-12-13T08:48:39;29.70;;;21.03;;
21665;SDS011;10994;45.486;9.190;2022-12-13T08:51:08;34.67;;;22.53;;
21665;SDS011;10994;45.486;9.190;2022-12-13T08:53:36;35.57;;;22.93;;
21665;SDS011;10994;45.486;9.190;2022-12-13T08:56:03;29.00;;;20.83;;
21665;SDS011;10994;45.486;9.190;2022-12-13T08:58:31;30.53;;;22.73;;
21665;SDS011;10994;45.486;9.190;2022-12-13T09:00:57;29.73;;;21.73;;
21665;SDS011;10994;45.486;9.190;2022-12-13T09:03:23;32.77;;;21.87;;
21665;SDS011;10994;45.486;9.190;2022-12-13T09:05:49;34.30;;;23.93;;
21665;SDS011;10994;45.486;9.190;2022-12-13T09:08:16;32.20;;;22.50;;
21665;SDS011;10994;45.486;9.190;2022-12-13T09:10:42;33.97;;;22.83;;
21665;SDS011;10994;45.486;9.190;2022-12-13T09:13:09;32.67;;;23.40;;
21665;SDS011;10994;45.486;9.190;2022-12-13T09:15:36;36.67;;;23.27;;
21665;SDS011;10994;45.486;9.190;2022-12-13T09:18:03;34.67;;;22.93;;
21665;SDS011;10994;45.486;9.190;2022-12-13T09:20:29;32.70;;;23.37;;
21665;SDS011;10994;45.486;9.190;2022-12-13T09:22:55;28.77;;;21.70;;
21665;SDS011;10994;45.486;9.190;2022-12-13T09:25:21;33.33;;;23.07;;
21665;SDS011;10994;45.486;9.190;2022-12-13T09:27:47;32.00;;;23.20;;
21665;SDS011;10994;45.486;9.190;2022-12-13T09:30:13;38.10;;;26.13;;
21665;SDS011;10994;45.486;9.190;2022-12-13T09:32:39;31.27;;;23.10;;
21665;SDS011;10994;45.486;9.190;2022-12-13T09:35:06;34.87;;;24.13;;
21665;SDS011;10994;45.486;9.190;2022-12-13T09:37:32;40.50;;;27.90;;
21665;SDS011;10994;45.486;9.190;2022-12-13T09:39:58;36.67;;;23.90;;
21665;SDS011;10994;45.486;9.190;2022-12-13T09:42:28;31.97;;;22.53;;
21665;SDS011;10994;45.486;9.190;2022-12-13T09:45:02;31.73;;;22.27;;
21665;SDS011;10994;45.486;9.190;2022-12-13T09:47:31;32.13;;;22.83;;
21665;SDS011;10994;45.486;9.190;2022-12-13T09:50:04;30.90;;;22.63;;
21665;SDS011;10994;45.486;9.190;2022-12-13T09:52:37;31.03;;;22.87;;
21665;SDS011;10994;45.486;9.190;2022-12-13T09:55:22;31.20;;;22.23;;
21665;SDS011;10994;45.486;9.190;2022-12-13T09:57:55;31.30;;;22.60;;
21665;SDS011;10994;45.486;9.190;2022-12-13T10:00:32;31.03;;;21.27;;
21665;SDS011;10994;45.486;9.190;2022-12-13T10:03:24;29.77;;;21.17;;
21665;SDS011;10994;45.486;9.190;2022-12-13T10:05:58;32.97;;;21.47;;
21665;SDS011;10994;45.486;9.190;2022-12-13T10:08:34;33.07;;;21.97;;
21665;SDS011;10994;45.486;9.190;2022-12-13T10:11:02;29.93;;;21.43;;
21665;SDS011;10994;45.486;9.190;2022-12-13T10:16:12;28.30;;;21.27;;
21665;SDS011;10994;45.486;9.190;2022-12-13T10:18:40;30.47;;;22.03;;
21665;SDS011;10994;45.486;9.190;2022-12-13T10:21:12;29.60;;;22.13;;
21665;SDS011;10994;45.486;9.190;2022-12-13T10:23:45;30.50;;;21.40;;
21665;SDS011;10994;45.486;9.190;2022-12-13T10:26:11;32.43;;;21.73;;
21665;SDS011;10994;45.486;9.190;2022-12-13T10:28:38;26.50;;;20.83;;
21665;SDS011;10994;45.486;9.190;2022-12-13T10:31:05;28.80;;;20.70;;
21665;SDS011;10994;45.486;9.190;2022-12-13T10:38:40;32.53;;;21.37;;
21665;SDS011;10994;45.486;9.190;2022-12-13T10:44:06;31.07;;;20.53;;
21665;SDS011;10994;45.486;9.190;2022-12-13T10:46:35;30.80;;;20.67;;
21665;SDS011;10994;45.486;9.190;2022-12-13T10:49:02;29.70;;;21.77;;
21665;SDS011;10994;45.486;9.190;2022-12-13T10:51:37;28.00;;;20.87;;
21665;SDS011;10994;45.486;9.190;2022-12-13T10:54:04;29.90;;;20.90;;
21665;SDS011;10994;45.486;9.190;2022-12-13T10:56:37;31.67;;;22.30;;
21665;SDS011;10994;45.486;9.190;2022-12-13T11:01:58;30.77;;;22.17;;
21665;SDS011;10994;45.486;9.190;2022-12-13T11:04:30;30.50;;;21.97;;
21665;SDS011;10994;45.486;9.190;2022-12-13T11:06:59;28.13;;;20.60;;
21665;SDS011;10994;45.486;9.190;2022-12-13T11:09:32;32.80;;;22.10;;
21665;SDS011;10994;45.486;9.190;2022-12-13T11:12:01;33.43;;;21.50;;
21665;SDS011;10994;45.486;9.190;2022-12-13T11:14:32;29.70;;;22.20;;
21665;SDS011;10994;45.486;9.190;2022-12-13T11:17:04;27.93;;;21.47;;
21665;SDS011;10994;45.486;9.190;2022-12-13T11:19:37;29.90;;;22.10;;
21665;SDS011;10994;45.486;9.190;2022-12-13T11:22:04;32.23;;;22.67;;
21665;SDS011;10994;45.486;9.190;2022-12-13T11:24:33;32.07;;;23.73;;
21665;SDS011;10994;45.486;9.190;2022-12-13T11:27:07;31.57;;;22.97;;
21665;SDS011;10994;45.486;9.190;2022-12-13T11:30:07;31.53;;;22.17;;
21665;SDS011;10994;45.486;9.190;2022-12-13T11:38:24;32.47;;;23.33;;
21665;SDS011;10994;45.486;9.190;2022-12-13T11:41:06;32.67;;;22.67;;
21665;SDS011;10994;45.486;9.190;2022-12-13T11:43:45;33.40;;;21.40;;
21665;SDS011;10994;45.486;9.190;2022-12-13T11:46:21;33.97;;;24.67;;
21665;SDS011;10994;45.486;9.190;2022-12-13T11:49:15;35.53;;;22.87;;
21665;SDS011;10994;45.486;9.190;2022-12-13T11:51:45;31.63;;;22.70;;
21665;SDS011;10994;45.486;9.190;2022-12-13T11:54:21;30.43;;;22.10;;
21665;SDS011;10994;45.486;9.190;2022-12-13T11:56:54;30.83;;;22.53;;
21665;SDS011;10994;45.486;9.190;2022-12-13T12:02:22;30.80;;;23.47;;
21665;SDS011;10994;45.486;9.190;2022-12-13T12:04:55;31.53;;;23.17;;
21665;SDS011;10994;45.486;9.190;2022-12-13T12:07:44;29.53;;;22.43;;
21665;SDS011;10994;45.486;9.190;2022-12-13T12:13:09;30.70;;;21.70;;
21665;SDS011;10994;45.486;9.190;2022-12-13T12:18:46;29.73;;;21.63;;
21665;SDS011;10994;45.486;9.190;2022-12-13T12:21:22;28.73;;;21.00;;
21665;SDS011;10994;45.486;9.190;2022-12-13T12:24:23;30.63;;;21.97;;
21665;SDS011;10994;45.486;9.190;2022-12-13T12:40:24;27.37;;;20.07;;
21665;SDS011;10994;45.486;9.190;2022-12-13T12:48:14;28.50;;;21.00;;
21665;SDS011;10994;45.486;9.190;2022-12-13T12:50:59;34.77;;;23.23;;
21665;SDS011;10994;45.486;9.190;2022-12-13T12:53:45;26.90;;;20.27;;
21665;SDS011;10994;45.486;9.190;2022-12-13T12:56:27;29.47;;;20.37;;
21665;SDS011;10994;45.486;9.190;2022-12-13T12:59:21;30.47;;;21.40;;
21665;SDS011;10994;45.486;9.190;2022-12-13T13:02:15;27.87;;;20.60;;
21665;SDS011;10994;45.486;9.190;2022-12-13T13:04:53;30.80;;;22.07;;
21665;SDS011;10994;45.486;9.190;2022-12-13T13:07:46;29.67;;;21.03;;
21665;SDS011;10994;45.486;9.190;2022-12-13T13:10:14;29.13;;;19.77;;
21665;SDS011;10994;45.486;9.190;2022-12-13T13:12:41;24.80;;;18.77;;
21665;SDS011;10994;45.486;9.190;2022-12-13T13:17:55;25.37;;;19.93;;
21665;SDS011;10994;45.486;9.190;2022-12-13T13:20:24;25.93;;;20.03;;
21665;SDS011;10994;45.486;9.190;2022-12-13T13:22:51;24.30;;;19.33;;
21665;SDS011;10994;45.486;9.190;2022-12-13T13:25:24;28.43;;;21.13;;
21665;SDS011;10994;45.486;9.190;2022-12-13T13:27:59;27.63;;;20.20;;
21665;SDS011;10994;45.486;9.190;2022-12-13T13:30:26;30.30;;;20.17;;
21665;SDS011;10994;45.486;9.190;2022-12-13T13:32:56;25.53;;;18.93;;
21665;SDS011;10994;45.486;9.190;2022-12-13T13:53:58;27.27;;;19.23;;
21665;SDS011;10994;45.486;9.190;2022-12-13T14:08:16;26.30;;;19.13;;
21665;SDS011;10994;45.486;9.190;2022-12-13T14:24:55;29.43;;;20.83;;
21665;SDS011;10994;45.486;9.190;2022-12-13T14:27:46;28.23;;;20.83;;
21665;SDS011;10994;45.486;9.190;2022-12-13T14:30:29;27.93;;;20.10;;
21665;SDS011;10994;45.486;9.190;2022-12-13T14:32:56;30.97;;;21.40;;
21665;SDS011;10994;45.486;9.190;2022-12-13T14:35:23;27.33;;;20.83;;
21665;SDS011;10994;45.486;9.190;2022-12-13T14:40:53;32.03;;;22.93;;
21665;SDS011;10994;45.486;9.190;2022-12-13T14:43:25;33.80;;;22.53;;
21665;SDS011;10994;45.486;9.190;2022-12-13T14:45:55;28.63;;;20.90;;
21665;SDS011;10994;45.486;9.190;2022-12-13T14:48:22;25.90;;;20.80;;
21665;SDS011;10994;45.486;9.190;2022-12-13T14:50:48;29.10;;;20.40;;
21665;SDS011;10994;45.486;9.190;2022-12-13T14:53:25;27.53;;;20.97;;
21665;SDS011;10994;45.486;9.190;2022-12-13T14:56:05;31.33;;;22.90;;
21665;SDS011;10994;45.486;9.190;2022-12-13T14:58:33;26.90;;;20.57;;
21665;SDS011;10994;45.486;9.190;2022-12-13T15:01:01;28.43;;;20.90;;
21665;SDS011;10994;45.486;9.190;2022-12-13T15:03:28;28.37;;;21.13;;
21665;SDS011;10994;45.486;9.190;2022-12-13T15:05:58;32.40;;;21.83;;
21665;SDS011;10994;45.486;9.190;2022-12-13T15:08:25;28.10;;;21.13;;
21665;SDS011;10994;45.486;9.190;2022-12-13T15:10:55;29.53;;;23.23;;
21665;SDS011;10994;45.486;9.190;2022-12-13T15:15:53;28.87;;;22.30;;
21665;SDS011;10994;45.486;9.190;2022-12-13T15:18:28;28.60;;;22.07;;
21665;SDS011;10994;45.486;9.190;2022-12-13T15:21:16;29.63;;;21.90;;
21665;SDS011;10994;45.486;9.190;2022-12-13T15:23:50;33.40;;;24.50;;
21665;SDS011;10994;45.486;9.190;2022-12-13T15:26:24;27.23;;;20.17;;
21665;SDS011;10994;45.486;9.190;2022-12-13T15:28:56;30.70;;;21.93;;
21665;SDS011;10994;45.486;9.190;2022-12-13T15:31:23;30.57;;;22.70;;
21665;SDS011;10994;45.486;9.190;2022-12-13T15:33:49;29.80;;;22.60;;
21665;SDS011;10994;45.486;9.190;2022-12-13T15:38:46;32.47;;;23.33;;
21665;SDS011;10994;45.486;9.190;2022-12-13T15:41:20;33.47;;;23.60;;
21665;SDS011;10994;45.486;9.190;2022-12-13T15:43:59;30.03;;;23.43;;
21665;SDS011;10994;45.486;9.190;2022-12-13T15:46:28;28.27;;;22.03;;
21665;SDS011;10994;45.486;9.190;2022-12-13T15:48:56;34.37;;;21.37;;
21665;SDS011;10994;45.486;9.190;2022-12-13T15:51:26;29.40;;;19.90;;
21665;SDS011;10994;45.486;9.190;2022-12-13T15:56:36;27.40;;;20.07;;
21665;SDS011;10994;45.486;9.190;2022-12-13T15:59:20;27.00;;;19.63;;
21665;SDS011;10994;45.486;9.190;2022-12-13T16:01:53;30.77;;;20.00;;
21665;SDS011;10994;45.486;9.190;2022-12-13T16:04:21;26.87;;;19.23;;
21665;SDS011;10994;45.486;9.190;2022-12-13T16:06:49;25.57;;;19.30;;
21665;SDS011;10994;45.486;9.190;2022-12-13T16:09:20;24.77;;;18.60;;
21665;SDS011;10994;45.486;9.190;2022-12-13T16:11:50;23.73;;;17.40;;
21665;SDS011;10994;45.486;9.190;2022-12-13T16:16:54;26.00;;;19.63;;
21665;SDS011;10994;45.486;9.190;2022-12-13T16:19:40;24.50;;;17.97;;
21665;SDS011;10994;45.486;9.190;2022-12-13T16:22:06;22.57;;;17.73;;
21665;SDS011;10994;45.486;9.190;2022-12-13T16:24:32;25.60;;;19.13;;
21665;SDS011;10994;45.486;9.190;2022-12-13T16:26:58;27.40;;;19.17;;
21665;SDS011;10994;45.486;9.190;2022-12-13T16:29:23;23.60;;;19.00;;
21665;SDS011;10994;45.486;9.190;2022-12-13T16:31:49;23.93;;;17.80;;
21665;SDS011;10994;45.486;9.190;2022-12-13T16:34:15;23.83;;;18.87;;
21665;SDS011;10994;45.486;9.190;2022-12-13T16:36:42;28.07;;;20.10;;
21665;SDS011;10994;45.486;9.190;2022-12-13T16:39:09;25.30;;;19.40;;
21665;SDS011;10994;45.486;9.190;2022-12-13T16:41:36;26.33;;;19.77;;
21665;SDS011;10994;45.486;9.190;2022-12-13T16:44:05;27.67;;;19.83;;